createdAt,value
2023-02-03T00:02:10.930Z,100528.27
2023-02-03T00:04:37.992Z,100529.52
2023-02-03T00:07:05.189Z,100532.30
2023-02-03T00:09:32.204Z,100537.84
2023-02-03T00:11:59.156Z,100544.86
2023-02-03T00:14:26.106Z,100551.17
2023-02-03T00:16:53.058Z,100556.83
2023-02-03T00:19:20.106Z,100551.72
2023-02-03T00:21:47.163Z,100551.77
2023-02-03T00:24:14.113Z,100549.30
2023-02-03T00:26:42.869Z,100548.27
2023-02-03T00:29:10.057Z,100548.22
2023-02-03T00:31:37.708Z,100547.73
2023-02-03T00:34:06.206Z,100550.81
2023-02-03T00:36:33.689Z,100552.75
2023-02-03T00:39:01.762Z,100552.52
2023-02-03T00:41:31.841Z,100550.23
2023-02-03T00:43:58.837Z,100549.18
2023-02-03T00:46:25.892Z,100547.64
2023-02-03T00:48:55.689Z,100547.02
2023-02-03T00:51:22.861Z,100549.30
2023-02-03T00:53:49.999Z,100543.98
2023-02-03T00:56:16.809Z,100548.45
2023-02-03T00:58:44.537Z,100548.19
2023-02-03T01:01:12.159Z,100545.52
2023-02-03T01:03:39.867Z,100542.64
2023-02-03T01:06:16.414Z,100539.53
2023-02-03T01:08:44.294Z,100542.70
2023-02-03T01:11:17.522Z,100544.33
2023-02-03T01:13:45.256Z,100547.15
2023-02-03T01:16:14.340Z,100552.71
2023-02-03T01:18:43.139Z,100553.12
2023-02-03T01:21:17.283Z,100556.23
2023-02-03T01:23:44.816Z,100552.84
2023-02-03T01:26:14.461Z,100552.36
2023-02-03T01:28:41.912Z,100552.27
2023-02-03T01:31:14.975Z,100558.79
2023-02-03T01:33:46.334Z,100555.70
2023-02-03T01:36:14.214Z,100556.66
2023-02-03T01:38:41.775Z,100558.83
2023-02-03T01:41:12.687Z,100558.05
2023-02-03T01:43:46.191Z,100556.86
2023-02-03T01:46:39.058Z,100563.14
2023-02-03T01:49:12.453Z,100560.73
2023-02-03T01:51:42.461Z,100562.70
2023-02-03T01:54:15.060Z,100567.50
2023-02-03T01:56:47.018Z,100566.55
2023-02-03T01:59:17.850Z,100565.84
2023-02-03T02:01:45.678Z,100565.47
2023-02-03T02:04:13.084Z,100559.52
2023-02-03T02:06:40.245Z,100556.83
2023-02-03T02:09:12.099Z,100555.02
2023-02-03T02:11:40.185Z,100551.63
2023-02-03T02:14:10.298Z,100551.50
2023-02-03T02:16:37.146Z,100555.77
2023-02-03T02:19:35.106Z,100551.55
2023-02-03T02:22:23.239Z,100549.58
2023-02-03T02:25:11.575Z,100544.65
2023-02-03T02:27:57.406Z,100543.98
2023-02-03T02:30:55.417Z,100540.43
2023-02-03T02:33:28.615Z,100537.38
2023-02-03T02:35:58.737Z,100536.25
2023-02-03T02:38:41.542Z,100537.20
2023-02-03T02:41:19.155Z,100540.34
2023-02-03T02:44:00.621Z,100538.16
2023-02-03T02:46:35.480Z,100542.06
2023-02-03T02:49:52.130Z,100537.30
2023-02-03T02:52:21.842Z,100532.52
2023-02-03T02:54:53.912Z,100529.77
2023-02-03T02:57:25.063Z,100525.62
2023-02-03T02:59:52.005Z,100526.96
2023-02-03T03:02:19.265Z,100527.33
2023-02-03T03:04:50.045Z,100527.23
2023-02-03T03:07:24.216Z,100532.05
2023-02-03T03:09:57.991Z,100535.79
2023-02-03T03:12:31.507Z,100536.64
2023-02-03T03:15:03.406Z,100538.62
2023-02-03T03:17:47.978Z,100540.87
2023-02-03T03:20:22.697Z,100539.60
2023-02-03T03:22:56.376Z,100540.95
2023-02-03T03:25:32.148Z,100537.75
2023-02-03T03:28:05.170Z,100535.48
2023-02-03T03:30:37.625Z,100534.30
2023-02-03T03:33:06.300Z,100535.04
2023-02-03T03:35:57.407Z,100539.30
2023-02-03T03:38:33.866Z,100534.34
2023-02-03T03:41:08.915Z,100536.27
2023-02-03T03:43:40.349Z,100535.33
2023-02-03T03:46:14.037Z,100532.25
2023-02-03T03:48:52.467Z,100531.77
2023-02-03T03:51:23.517Z,100524.75
2023-02-03T03:53:52.312Z,100518.96
2023-02-03T03:56:29.685Z,100521.44
2023-02-03T03:59:00.147Z,100522.55
2023-02-03T04:01:29.563Z,100523.80
2023-02-03T04:04:02.313Z,100531.36
2023-02-03T04:06:29.163Z,100534.45
2023-02-03T04:08:56.425Z,100530.81
2023-02-03T04:11:41.899Z,100533.83
2023-02-03T04:14:09.664Z,100530.71
2023-02-03T04:16:36.618Z,100532.83
2023-02-03T04:19:03.470Z,100534.54
2023-02-03T04:21:30.310Z,100537.64
2023-02-03T04:23:57.038Z,100537.45
2023-02-03T04:26:24.523Z,100540.56
2023-02-03T04:28:51.467Z,100542.58
2023-02-03T04:31:18.435Z,100542.34
2023-02-03T04:33:45.469Z,100540.41
2023-02-03T04:36:12.322Z,100531.48
2023-02-03T04:38:39.274Z,100531.98
2023-02-03T04:41:06.230Z,100533.98
2023-02-03T04:43:33.027Z,100534.64
2023-02-03T04:46:01.248Z,100533.09
2023-02-03T04:48:29.225Z,100533.10
2023-02-03T04:50:56.172Z,100530.21
2023-02-03T04:53:23.047Z,100534.05
2023-02-03T04:55:49.980Z,100537.13
2023-02-03T04:58:16.923Z,100538.10
2023-02-03T05:00:43.896Z,100533.08
2023-02-03T05:03:10.886Z,100529.58
2023-02-03T05:05:37.780Z,100530.23
2023-02-03T05:08:05.234Z,100530.67
2023-02-03T05:10:32.185Z,100526.09
2023-02-03T05:12:59.452Z,100518.71
2023-02-03T05:15:27.112Z,100516.25
2023-02-03T05:17:55.520Z,100518.04
2023-02-03T05:20:23.365Z,100518.77
2023-02-03T05:22:50.618Z,100522.75
2023-02-03T05:25:17.575Z,100524.42
2023-02-03T05:27:44.452Z,100522.25
2023-02-03T05:30:12.188Z,100520.38
2023-02-03T05:32:39.069Z,100515.95
2023-02-03T05:35:06.501Z,100515.85
2023-02-03T05:37:33.345Z,100514.20
2023-02-03T05:40:20.154Z,100514.64
2023-02-03T05:42:50.583Z,100515.58
2023-02-03T05:45:17.746Z,100517.67
2023-02-03T05:47:44.682Z,100516.10
2023-02-03T05:50:11.532Z,100514.85
2023-02-03T05:52:38.484Z,100514.62
2023-02-03T05:55:05.641Z,100517.90
2023-02-03T05:57:32.587Z,100516.61
2023-02-03T05:59:59.742Z,100511.08
2023-02-03T06:02:26.694Z,100511.60
2023-02-03T06:04:53.541Z,100510.67
2023-02-03T06:07:20.366Z,100510.62
2023-02-03T06:09:47.688Z,100504.63
2023-02-03T06:12:16.191Z,100503.70
2023-02-03T06:14:43.186Z,100507.13
2023-02-03T06:17:10.053Z,100503.86
2023-02-03T06:19:36.986Z,100505.23
2023-02-03T06:22:03.936Z,100502.55
2023-02-03T06:24:30.884Z,100500.15
2023-02-03T06:26:57.843Z,100496.67
2023-02-03T06:29:24.786Z,100492.08
2023-02-03T06:31:51.835Z,100488.95
2023-02-03T06:34:18.892Z,100487.11
2023-02-03T06:36:45.947Z,100484.41
2023-02-03T06:39:12.788Z,100485.56
2023-02-03T06:41:39.750Z,100481.93
2023-02-03T06:44:07.108Z,100479.34
2023-02-03T06:46:34.367Z,100476.67
2023-02-03T06:49:01.411Z,100473.33
2023-02-03T06:51:28.372Z,100462.94
2023-02-03T06:53:55.211Z,100458.84
2023-02-03T06:56:22.161Z,100455.02
2023-02-03T06:58:49.028Z,100453.48
2023-02-03T07:01:16.118Z,100450.20
2023-02-03T07:03:43.125Z,100449.19
2023-02-03T07:06:09.970Z,100447.92
2023-02-03T07:08:36.822Z,100440.70
2023-02-03T07:11:03.864Z,100440.33
2023-02-03T07:13:30.829Z,100441.85
2023-02-03T07:15:57.721Z,100433.80
2023-02-03T07:21:14.588Z,100425.36
2023-02-03T07:23:41.759Z,100419.73
2023-02-03T07:26:10.619Z,100415.73
2023-02-03T07:28:37.697Z,100413.23
2023-02-03T07:31:05.159Z,100413.46
2023-02-03T07:33:32.202Z,100409.77
2023-02-03T07:36:00.603Z,100405.24
2023-02-03T07:38:28.569Z,100399.40
2023-02-03T07:40:56.638Z,100394.67
2023-02-03T07:43:24.408Z,100389.91
2023-02-03T07:45:51.465Z,100379.45
2023-02-03T07:48:18.641Z,100379.95
2023-02-03T07:50:46.078Z,100382.86
2023-02-03T07:53:12.933Z,100380.08
2023-02-03T07:55:40.608Z,100374.09
2023-02-03T07:58:08.262Z,100364.61
2023-02-03T08:00:35.436Z,100355.58
2023-02-03T08:03:02.778Z,100350.64
2023-02-03T08:05:30.571Z,100348.19
2023-02-03T08:07:59.526Z,100347.83
2023-02-03T08:10:27.222Z,100344.08
2023-02-03T08:12:55.591Z,100338.19
2023-02-03T08:15:22.972Z,100337.38
2023-02-03T08:17:50.772Z,100332.11
2023-02-03T08:20:18.596Z,100328.79
2023-02-03T08:22:46.970Z,100324.80
2023-02-03T08:25:14.334Z,100320.73
2023-02-03T08:27:41.742Z,100318.73
2023-02-03T08:30:12.311Z,100323.35
2023-02-03T08:32:39.481Z,100320.89
2023-02-03T08:35:07.265Z,100316.73
2023-02-03T08:37:34.713Z,100316.80
2023-02-03T08:40:01.982Z,100311.32
2023-02-03T08:42:29.122Z,100308.73
2023-02-03T08:44:56.402Z,100304.98
2023-02-03T08:47:23.337Z,100304.48
2023-02-03T08:49:50.282Z,100296.60
2023-02-03T08:52:19.133Z,100295.42
2023-02-03T08:54:47.053Z,100289.86
2023-02-03T08:57:14.735Z,100289.54
2023-02-03T08:59:43.642Z,100289.95
2023-02-03T09:02:16.037Z,100280.14
2023-02-03T09:04:43.826Z,100271.45
2023-02-03T09:07:11.541Z,100261.16
2023-02-03T09:09:38.472Z,100259.30
2023-02-03T09:12:10.897Z,100256.76
2023-02-03T09:14:37.795Z,100245.50
2023-02-03T09:17:05.983Z,100238.38
2023-02-03T09:19:35.418Z,100236.65
2023-02-03T09:22:03.484Z,100230.45
2023-02-03T09:24:31.127Z,100229.75
2023-02-03T09:26:58.405Z,100228.05
2023-02-03T09:29:25.454Z,100226.41
2023-02-03T09:31:53.277Z,100221.66
2023-02-03T09:34:21.780Z,100219.11
2023-02-03T09:36:49.462Z,100214.54
2023-02-03T09:39:16.616Z,100205.20
2023-02-03T09:42:26.253Z,100192.72
2023-02-03T09:45:14.379Z,100194.27
2023-02-03T09:47:45.166Z,100189.52
2023-02-03T09:50:23.888Z,100189.33
2023-02-03T09:52:52.011Z,100178.48
2023-02-03T09:55:34.354Z,100172.77
2023-02-03T09:58:10.472Z,100170.38
2023-02-03T10:00:43.738Z,100167.02
2023-02-03T10:03:31.895Z,100162.14
2023-02-03T10:06:31.386Z,100151.72
2023-02-03T10:09:22.294Z,100144.20
2023-02-03T10:12:07.658Z,100139.82
2023-02-03T10:14:34.614Z,100136.88
2023-02-03T10:17:07.322Z,100129.06
2023-02-03T10:19:44.581Z,100118.23
2023-02-03T10:22:20.526Z,100112.16
2023-02-03T10:25:07.437Z,100101.59
2023-02-03T10:27:35.713Z,100095.11
2023-02-03T10:30:20.469Z,100084.81
2023-02-03T10:32:53.458Z,100077.66
2023-02-03T10:35:24.910Z,100076.42
2023-02-03T10:37:58.466Z,100070.76
2023-02-03T10:40:27.392Z,100064.20
2023-02-03T10:43:14.215Z,100056.92
2023-02-03T10:45:41.175Z,100052.54
2023-02-03T10:48:15.794Z,100042.86
2023-02-03T10:50:47.145Z,100037.73
2023-02-03T10:53:22.599Z,100037.52
2023-02-03T10:56:12.059Z,100026.16
2023-02-03T10:58:46.170Z,100010.77
2023-02-03T11:01:15.931Z,100000.21
2023-02-03T11:03:57.360Z,99988.50
2023-02-03T11:06:24.308Z,99975.79
2023-02-03T11:08:52.820Z,99976.98
2023-02-03T11:11:29.363Z,99968.89
2023-02-03T11:14:12.649Z,99960.46
2023-02-03T11:16:42.692Z,99952.56
2023-02-03T11:19:22.554Z,99943.23
2023-02-03T11:21:56.140Z,99929.34
2023-02-03T11:24:33.155Z,99919.13
2023-02-03T11:27:07.051Z,99912.52
2023-02-03T11:29:40.640Z,99908.77
2023-02-03T11:32:38.405Z,99905.75
2023-02-03T11:35:18.036Z,99895.53
2023-02-03T11:37:50.717Z,99887.20
2023-02-03T11:40:20.443Z,99874.38
2023-02-03T11:42:50.147Z,99866.08
2023-02-03T11:45:26.220Z,99861.55
2023-02-03T11:48:06.145Z,99851.84
2023-02-03T11:50:50.928Z,99841.92
2023-02-03T11:53:27.577Z,99840.11
2023-02-03T11:56:12.750Z,99832.84
2023-02-03T11:58:57.712Z,99819.94
2023-02-03T12:02:00.264Z,99807.20
2023-02-03T12:04:42.281Z,99800.77
2023-02-03T12:07:20.576Z,99789.94
2023-02-03T12:09:54.691Z,99785.64
2023-02-03T12:12:34.016Z,99777.05
2023-02-03T12:15:19.803Z,99768.46
2023-02-03T12:18:18.672Z,99759.98
2023-02-03T12:21:00.667Z,99747.35
2023-02-03T12:23:48.520Z,99739.40
2023-02-03T12:26:25.701Z,99734.98
2023-02-03T12:28:55.396Z,99731.02
2023-02-03T12:31:46.221Z,99727.70
2023-02-03T12:34:25.017Z,99714.80
2023-02-03T12:37:18.366Z,99708.52
2023-02-03T12:39:52.264Z,99703.48
2023-02-03T12:42:30.587Z,99693.81
2023-02-03T12:45:00.398Z,99689.85
2023-02-03T12:47:51.163Z,99686.30
2023-02-03T12:50:34.213Z,99680.86
2023-02-03T12:53:10.069Z,99677.32
2023-02-03T12:55:42.054Z,99673.52
2023-02-03T12:58:27.515Z,99668.38
2023-02-03T13:01:04.758Z,99661.46
2023-02-03T13:04:09.500Z,99655.89
2023-02-03T13:06:55.175Z,99649.20
2023-02-03T13:10:14.975Z,99642.97
2023-02-03T13:12:45.273Z,99634.31
2023-02-03T13:15:33.388Z,99622.91
2023-02-03T13:18:16.838Z,99612.27
2023-02-03T13:20:45.721Z,99603.55
2023-02-03T13:23:15.479Z,99592.92
2023-02-03T13:25:57.766Z,99580.92
2023-02-03T13:28:45.862Z,99570.17
2023-02-03T13:31:41.994Z,99556.67
2023-02-03T13:34:40.756Z,99545.42
2023-02-03T13:37:13.630Z,99538.23
2023-02-03T13:40:13.775Z,99533.86
2023-02-03T13:43:06.287Z,99523.13
2023-02-03T13:45:46.884Z,99512.91
2023-02-03T13:48:16.858Z,99510.70
2023-02-03T13:50:46.567Z,99506.80
2023-02-03T13:53:25.938Z,99498.62
2023-02-03T13:56:00.836Z,99488.64
2023-02-03T13:58:33.622Z,99481.38
2023-02-03T14:01:28.410Z,99473.50
2023-02-03T14:03:56.924Z,99465.66
2023-02-03T14:06:35.918Z,99455.27
2023-02-03T14:09:22.617Z,99448.98
2023-02-03T14:11:51.418Z,99443.92
2023-02-03T14:14:20.921Z,99435.05
2023-02-03T14:16:55.613Z,99433.77
2023-02-03T14:19:22.590Z,99432.42
2023-02-03T14:21:55.102Z,99428.59
2023-02-03T14:24:22.954Z,99424.37
2023-02-03T14:26:55.592Z,99419.98
2023-02-03T14:29:29.659Z,99419.80
2023-02-03T14:32:22.785Z,99416.65
2023-02-03T14:34:50.865Z,99417.72
2023-02-03T14:37:29.166Z,99417.52
2023-02-03T14:39:56.019Z,99411.21
2023-02-03T14:42:51.945Z,99405.88
2023-02-03T14:45:36.288Z,99401.24
2023-02-03T14:48:45.490Z,99396.80
2023-02-03T14:51:24.512Z,99390.08
2023-02-03T14:54:13.573Z,99388.34
2023-02-03T14:57:02.232Z,99385.50
2023-02-03T14:59:37.866Z,99387.53
2023-02-03T15:02:27.884Z,99386.94
2023-02-03T15:05:13.694Z,99382.20
2023-02-03T15:07:49.805Z,99379.92
2023-02-03T15:10:20.858Z,99375.95
2023-02-03T15:12:52.892Z,99375.48
2023-02-03T15:15:30.892Z,99374.00
2023-02-03T15:18:00.702Z,99370.43
2023-02-03T15:20:39.078Z,99364.27
2023-02-03T15:23:29.206Z,99358.59
2023-02-03T15:25:58.719Z,99354.94
2023-02-03T15:28:27.920Z,99353.24
2023-02-03T15:31:07.654Z,99346.06
2023-02-03T15:33:39.000Z,99344.13
2023-02-03T15:36:15.162Z,99339.27
2023-02-03T15:38:49.183Z,99341.70
2023-02-03T15:41:23.699Z,99338.30
2023-02-03T15:44:02.002Z,99332.64
2023-02-03T15:46:37.482Z,99333.74
2023-02-03T15:49:13.406Z,99325.58
2023-02-03T15:51:47.721Z,99318.58
2023-02-03T15:54:30.124Z,99319.40
2023-02-03T15:57:11.613Z,99314.46
2023-02-03T15:59:46.466Z,99309.52
2023-02-03T16:02:15.019Z,99302.83
2023-02-03T16:04:42.694Z,99301.15
2023-02-03T16:07:22.852Z,99298.23
2023-02-03T16:09:57.064Z,99294.14
2023-02-03T16:12:32.415Z,99291.52
2023-02-03T16:15:01.291Z,99285.02
2023-02-03T16:17:31.970Z,99280.27
2023-02-03T16:20:10.885Z,99276.87
2023-02-03T16:22:40.067Z,99283.10
2023-02-03T16:25:28.687Z,99277.05
2023-02-03T16:28:16.379Z,99271.92
2023-02-03T16:31:19.057Z,99265.46
2023-02-03T16:34:06.919Z,99255.48
2023-02-03T16:36:53.012Z,99257.55
2023-02-03T16:39:38.377Z,99249.69
2023-02-03T16:42:33.190Z,99242.70
2023-02-03T16:45:18.636Z,99227.50
2023-02-03T16:48:05.539Z,99227.55
2023-02-03T16:50:51.628Z,99223.38
2023-02-03T16:53:29.222Z,99213.70
2023-02-03T16:55:58.387Z,99210.04
2023-02-03T16:58:25.696Z,99205.86
2023-02-03T17:00:54.021Z,99200.25
2023-02-03T17:03:26.436Z,99200.78
2023-02-03T17:05:54.921Z,99197.96
2023-02-03T17:08:26.205Z,99198.52
2023-02-03T17:10:53.728Z,99205.12
2023-02-03T17:13:22.375Z,99204.15
2023-02-03T17:15:52.951Z,99199.86
2023-02-03T17:18:20.251Z,99193.04
2023-02-03T17:20:47.983Z,99198.71
2023-02-03T17:23:19.541Z,99193.92
2023-02-03T17:25:50.170Z,99197.59
2023-02-03T17:28:18.016Z,99193.98
2023-02-03T17:30:45.744Z,99196.33
2023-02-03T17:33:12.997Z,99187.77
2023-02-03T17:35:45.486Z,99190.33
2023-02-03T17:38:14.863Z,99194.14
2023-02-03T17:54:33.354Z,99207.75
2023-02-03T17:57:00.304Z,99211.63
2023-02-03T17:59:27.677Z,99214.20
2023-02-03T18:01:55.131Z,99211.71
2023-02-03T18:04:22.713Z,99213.95
2023-02-03T18:06:49.626Z,99221.85
2023-02-03T18:09:17.187Z,99222.63
2023-02-03T18:11:45.166Z,99224.65
2023-02-03T18:14:16.778Z,99230.02
2023-02-03T18:16:45.224Z,99229.13
2023-02-03T18:19:16.502Z,99223.95
2023-02-03T18:21:44.732Z,99220.69
2023-02-03T18:24:13.841Z,99220.73
2023-02-03T18:26:49.004Z,99227.82
2023-02-03T18:29:16.013Z,99230.21
2023-02-03T18:31:44.412Z,99233.36
2023-02-03T18:34:12.255Z,99238.19
2023-02-03T18:39:07.286Z,99236.99
2023-02-03T18:41:36.908Z,99241.88
2023-02-03T18:44:04.379Z,99239.23
2023-02-03T18:46:32.938Z,99237.98
2023-02-03T18:49:01.057Z,99234.84
2023-02-03T18:51:28.743Z,99237.25
2023-02-03T18:53:59.970Z,99245.40
2023-02-03T18:56:35.317Z,99250.35
2023-02-03T18:59:08.322Z,99250.48
2023-02-03T19:01:36.566Z,99255.66
2023-02-03T19:04:05.265Z,99260.55
2023-02-03T19:06:34.943Z,99262.70
2023-02-03T19:09:03.064Z,99263.73
2023-02-03T19:11:30.108Z,99260.98
2023-02-03T19:13:57.061Z,99259.98
2023-02-03T19:16:23.964Z,99261.49
2023-02-03T19:18:51.282Z,99265.42
2023-02-03T19:21:18.527Z,99257.39
2023-02-03T19:23:45.998Z,99255.27
2023-02-03T19:26:15.606Z,99257.26
2023-02-03T19:28:42.654Z,99265.22
2023-02-03T19:31:15.541Z,99260.54
2023-02-03T19:33:43.015Z,99257.33
2023-02-03T19:36:11.821Z,99261.02
2023-02-03T19:38:39.105Z,99257.27
2023-02-03T19:41:07.993Z,99251.35
2023-02-03T19:43:35.526Z,99247.86
2023-02-03T19:46:02.742Z,99247.21
2023-02-03T19:48:30.349Z,99251.77
2023-02-03T19:50:57.813Z,99253.90
2023-02-03T19:53:25.172Z,99259.55
2023-02-03T19:55:53.286Z,99261.23
2023-02-03T19:58:20.934Z,99261.52
2023-02-03T20:00:48.992Z,99254.90
2023-02-03T20:03:18.906Z,99252.28
2023-02-03T20:05:49.640Z,99254.72
2023-02-03T20:08:17.659Z,99260.42
2023-02-03T20:10:45.591Z,99263.33
2023-02-03T20:13:15.165Z,99271.52
2023-02-03T20:15:43.484Z,99277.48
2023-02-03T20:18:10.653Z,99282.60
2023-02-03T20:20:38.095Z,99287.94
2023-02-03T20:23:05.132Z,99280.13
2023-02-03T20:25:32.411Z,99271.34
2023-02-03T20:28:02.725Z,99275.74
2023-02-03T20:30:30.909Z,99278.13
2023-02-03T20:32:58.790Z,99279.59
2023-02-03T20:35:27.626Z,99276.35
2023-02-03T20:37:55.372Z,99276.88
2023-02-03T20:40:25.083Z,99280.85
2023-02-03T20:42:53.280Z,99287.39
2023-02-03T20:45:25.493Z,99290.16
2023-02-03T20:47:52.959Z,99295.17
2023-02-03T20:50:28.955Z,99307.16
2023-02-03T20:52:58.999Z,99314.63
2023-02-03T20:55:27.241Z,99328.09
2023-02-03T20:57:57.249Z,99340.03
2023-02-03T21:00:26.697Z,99345.14
2023-02-03T21:03:12.464Z,99349.36
2023-02-03T21:05:45.603Z,99342.61
2023-02-03T21:08:15.801Z,99340.16
2023-02-03T21:10:44.658Z,99336.37
2023-02-03T21:13:24.833Z,99334.44
2023-02-03T21:15:55.339Z,99345.86
2023-02-03T21:18:37.332Z,99348.92
2023-02-03T21:21:05.707Z,99348.88
2023-02-03T21:23:40.326Z,99347.41
2023-02-03T21:26:31.345Z,99340.20
2023-02-03T21:28:59.935Z,99342.22
2023-02-03T21:31:32.665Z,99341.37
2023-02-03T21:34:24.129Z,99341.40
2023-02-03T21:36:51.194Z,99349.85
2023-02-03T21:39:30.737Z,99362.02
2023-02-03T21:42:01.055Z,99361.13
2023-02-03T21:44:36.389Z,99358.19
2023-02-03T21:47:05.667Z,99356.59
2023-02-03T21:49:34.369Z,99359.63
2023-02-03T21:52:01.454Z,99367.77
2023-02-03T21:54:33.346Z,99372.95
2023-02-03T21:57:01.368Z,99379.36
2023-02-03T21:59:37.522Z,99383.86
2023-02-03T22:02:23.068Z,99387.32
2023-02-03T22:04:50.059Z,99385.77
2023-02-03T22:07:18.652Z,99385.95
2023-02-03T22:09:50.402Z,99396.77
2023-02-03T22:12:17.663Z,99403.80
2023-02-03T22:14:44.575Z,99417.61
2023-02-03T22:17:14.277Z,99421.81
2023-02-03T22:19:43.332Z,99423.76
2023-02-03T22:22:10.473Z,99425.17
2023-02-03T22:24:37.535Z,99430.72
2023-02-03T22:27:04.804Z,99438.77
2023-02-03T22:29:31.942Z,99440.77
2023-02-03T22:31:59.061Z,99450.33
2023-02-03T22:34:27.208Z,99447.31
2023-02-03T22:36:54.334Z,99447.69
2023-02-03T22:39:21.474Z,99446.27
2023-02-03T22:41:48.567Z,99439.65
2023-02-03T22:44:18.146Z,99440.90
2023-02-03T22:46:45.202Z,99439.41
2023-02-03T22:49:12.664Z,99438.36
2023-02-03T22:51:40.638Z,99447.66
2023-02-03T22:54:07.784Z,99451.90
2023-02-03T22:56:35.170Z,99464.92
2023-02-03T22:59:04.894Z,99475.63
2023-02-03T23:01:32.232Z,99474.71
2023-02-03T23:03:59.302Z,99481.80
2023-02-03T23:06:26.434Z,99483.20
2023-02-03T23:08:55.737Z,99480.75
2023-02-03T23:11:23.103Z,99483.45
2023-02-03T23:13:50.147Z,99492.31
2023-02-03T23:16:17.267Z,99503.20
2023-02-03T23:18:44.475Z,99506.91
2023-02-03T23:21:11.518Z,99509.63
2023-02-03T23:23:38.556Z,99512.27
2023-02-03T23:26:05.711Z,99509.48
2023-02-03T23:28:32.676Z,99510.52
2023-02-03T23:30:59.782Z,99512.53
2023-02-03T23:33:26.779Z,99518.88
2023-02-03T23:35:55.448Z,99525.38
2023-02-03T23:38:22.432Z,99523.39
2023-02-03T23:40:49.609Z,99530.44
2023-02-03T23:43:16.921Z,99534.27
2023-02-03T23:45:43.880Z,99543.50
2023-02-03T23:48:11.235Z,99555.16
2023-02-03T23:50:38.692Z,99563.13
2023-02-03T23:53:05.853Z,99563.58
2023-02-03T23:55:32.697Z,99570.27
2023-02-03T23:57:59.758Z,99578.16
